Time;durP1;ratioP1;P1;durP2;ratioP2;P2;SDS_P1;SDS_P2;PMS_P1;PMS_P2;Temp;Humidity;BMP_temperature;BMP_pressure;BME280_temperature;BME280_humidity;BME280_pressure;Samples;Min_cycle;Max_cycle;Signal;HPM_P1;HPM_P2
2022/08/25 00:02:05;;;;;;;0.73;0.50;;;;;;;26.42;49.68;101693.88;5084262;28;20154;-47
2022/08/25 00:04:31;;;;;;;0.50;0.50;;;;;;;26.42;49.60;101697.47;5085412;28;20096;-47
2022/08/25 00:06:56;;;;;;;0.60;0.60;;;;;;;26.46;49.76;101708.81;5083489;28;20020;-47
2022/08/25 00:09:24;;;;;;;0.90;0.60;;;;;;;26.46;49.65;101705.25;5084643;28;20029;-49
2022/08/25 00:11:50;;;;;;;0.93;0.60;;;;;;;26.45;49.79;101700.84;5083323;28;20028;-47
2022/08/25 00:14:19;;;;;;;0.50;0.43;;;;;;;26.45;49.64;101693.50;5079274;28;20047;-49
2022/08/25 00:16:46;;;;;;;0.40;0.40;;;;;;;26.43;49.74;101698.31;5067241;28;20025;-48
2022/08/25 00:19:16;;;;;;;0.73;0.60;;;;;;;26.43;49.68;101701.03;5081198;28;20032;-47
2022/08/25 00:21:42;;;;;;;0.82;0.65;;;;;;;26.37;49.59;101694.47;5085058;28;20024;-47
2022/08/25 00:24:09;;;;;;;0.40;0.40;;;;;;;26.43;49.70;101706.47;5084146;28;20058;-49
2022/08/25 00:26:38;;;;;;;0.82;0.60;;;;;;;26.43;49.73;101704.59;5077675;28;20029;-50
2022/08/25 00:29:04;;;;;;;0.68;0.68;;;;;;;26.40;49.62;101698.69;5078075;28;20047;-53
2022/08/25 00:31:29;;;;;;;0.73;0.60;;;;;;;26.42;49.55;101702.03;5069735;28;20028;-48
2022/08/25 00:33:55;;;;;;;0.63;0.63;;;;;;;26.40;49.58;101695.97;5073415;28;20431;-51
2022/08/25 00:36:20;;;;;;;0.88;0.80;;;;;;;26.40;49.67;101701.41;5078485;28;20025;-49
2022/08/25 00:38:48;;;;;;;0.80;0.60;;;;;;;26.38;49.67;101708.97;5073215;28;20143;-49
2022/08/25 00:41:18;;;;;;;0.90;0.80;;;;;;;26.35;49.35;101695.72;5070457;28;20029;-51
2022/08/25 00:43:50;;;;;;;0.50;0.50;;;;;;;26.38;49.40;101709.81;5076262;28;20033;-50
2022/08/25 00:46:18;;;;;;;1.00;0.80;;;;;;;26.37;49.49;101708.09;5078774;28;20052;-50
2022/08/25 00:48:49;;;;;;;0.85;0.73;;;;;;;26.37;49.74;101707.25;5084310;28;20020;-51
2022/08/25 00:51:19;;;;;;;0.95;0.70;;;;;;;26.37;49.46;101701.81;5069552;28;20067;-49
2022/08/25 00:53:45;;;;;;;1.00;0.60;;;;;;;26.35;49.81;101703.91;5078077;28;20024;-46
2022/08/25 00:56:11;;;;;;;0.70;0.60;;;;;;;26.35;49.46;101710.19;5081646;28;20045;-49
2022/08/25 00:58:37;;;;;;;0.60;0.60;;;;;;;26.35;49.48;101714.81;5082720;28;20055;-49
2022/08/25 01:01:03;;;;;;;0.50;0.50;;;;;;;26.34;49.53;101710.41;5083406;28;20024;-50
2022/08/25 01:03:32;;;;;;;0.85;0.60;;;;;;;26.34;49.88;101707.69;5082468;28;20032;-52
2022/08/25 01:05:58;;;;;;;0.70;0.70;;;;;;;26.33;49.45;101706.81;5084060;28;20020;-50
2022/08/25 01:08:26;;;;;;;0.98;0.82;;;;;;;26.34;49.64;101707.69;5081225;28;20016;-52
2022/08/25 01:10:51;;;;;;;0.80;0.77;;;;;;;26.30;49.72;101701.78;5070354;28;20025;-49
2022/08/25 01:13:20;;;;;;;0.73;0.70;;;;;;;26.30;49.47;101707.22;5072939;28;20025;-51
2022/08/25 01:15:48;;;;;;;0.80;0.63;;;;;;;26.29;49.68;101705.53;5076274;28;20088;-52
2022/08/25 01:18:14;;;;;;;0.93;0.60;;;;;;;26.30;49.77;101718.13;5071348;28;20016;-50
2022/08/25 01:20:40;;;;;;;1.17;0.80;;;;;;;26.29;49.70;101701.97;5083904;28;20032;-48
2022/08/25 01:23:06;;;;;;;1.42;0.88;;;;;;;26.28;49.44;101700.28;5072212;28;20016;-49
2022/08/25 01:25:51;;;;;;;0.93;0.70;;;;;;;26.28;49.78;101697.56;5071883;28;20037;-53
2022/08/25 01:28:17;;;;;;;1.45;0.70;;;;;;;26.25;49.63;101697.94;5069177;28;20136;-49
2022/08/25 01:30:43;;;;;;;0.68;0.60;;;;;;;26.27;49.35;101707.63;5083732;28;20029;-52
2022/08/25 01:33:10;;;;;;;0.70;0.70;;;;;;;26.25;49.60;101700.66;5069418;28;20021;-47
2022/08/25 01:35:35;;;;;;;0.80;0.70;;;;;;;26.27;49.73;101704.06;5083494;28;20060;-47
2022/08/25 01:38:03;;;;;;;0.90;0.65;;;;;;;26.25;49.50;101695.22;5081894;28;20579;-48
2022/08/25 01:40:28;;;;;;;1.07;0.80;;;;;;;26.20;49.44;101693.09;5083692;28;20028;-49
2022/08/25 01:43:06;;;;;;;0.55;0.52;;;;;;;26.26;49.64;101694.19;5082878;28;20029;-48
2022/08/25 01:45:33;;;;;;;0.95;0.73;;;;;;;26.22;49.58;101688.28;5082647;28;20021;-49
2022/08/25 01:47:58;;;;;;;0.93;0.75;;;;;;;26.22;49.71;101682.84;5082664;28;20078;-48
2022/08/25 01:50:24;;;;;;;0.93;0.80;;;;;;;26.21;49.26;101683.91;5083755;28;20032;-49
2022/08/25 01:53:03;;;;;;;0.95;0.85;;;;;;;26.23;49.60;101687.25;5076347;28;20028;-48
2022/08/25 01:55:29;;;;;;;0.70;0.70;;;;;;;26.20;49.44;101682.19;5065588;28;20052;-47
2022/08/25 01:57:57;;;;;;;1.48;0.82;;;;;;;26.21;49.66;101683.03;5075711;28;20036;-47
2022/08/25 02:00:23;;;;;;;0.60;0.60;;;;;;;26.08;49.66;101665.56;5078420;28;20058;-48
2022/08/25 02:02:48;;;;;;;0.73;0.70;;;;;;;26.21;49.20;101677.56;5073561;28;20103;-50
2022/08/25 02:05:15;;;;;;;1.10;0.80;;;;;;;26.19;49.72;101680.50;5083180;28;20017;-48
2022/08/25 02:07:42;;;;;;;0.70;0.70;;;;;;;26.20;49.70;101684.06;5082666;28;20115;-47
2022/08/25 02:10:09;;;;;;;0.60;0.60;;;;;;;26.19;49.66;101688.69;5083295;28;20112;-50
2022/08/25 02:12:35;;;;;;;1.00;0.90;;;;;;;26.18;49.67;101687.00;5079007;28;20108;-49
2022/08/25 02:15:01;;;;;;;0.60;0.60;;;;;;;26.17;49.80;101683.44;5083222;28;20020;-49
2022/08/25 02:17:28;;;;;;;0.80;0.70;;;;;;;26.16;49.67;101689.91;5080469;28;20028;-48
2022/08/25 02:19:55;;;;;;;1.27;0.90;;;;;;;26.16;49.61;101698.09;5069760;28;20025;-52
2022/08/25 02:22:21;;;;;;;1.20;0.90;;;;;;;26.16;49.43;101698.09;5073468;28;20035;-47
2022/08/25 02:24:46;;;;;;;1.35;0.90;;;;;;;26.13;49.39;101694.94;5077321;28;20048;-50
2022/08/25 02:27:12;;;;;;;1.05;0.80;;;;;;;26.15;49.40;101704.59;5082727;28;20062;-48
2022/08/25 02:29:37;;;;;;;0.90;0.70;;;;;;;26.13;49.40;101703.13;5070328;28;20021;-50
2022/08/25 02:32:03;;;;;;;0.82;0.80;;;;;;;26.14;49.69;101696.63;5071264;28;20511;-48
2022/08/25 02:34:28;;;;;;;0.90;0.80;;;;;;;26.14;49.59;101702.91;5079503;28;20017;-48
2022/08/25 02:36:54;;;;;;;1.00;0.90;;;;;;;26.13;49.39;101700.41;5072074;28;20040;-49
2022/08/25 02:39:19;;;;;;;0.90;0.63;;;;;;;26.11;49.78;101699.72;5070058;28;20029;-49
2022/08/25 02:41:44;;;;;;;1.27;0.70;;;;;;;26.12;49.59;101698.69;5075404;28;20025;-48
2022/08/25 02:44:10;;;;;;;0.75;0.75;;;;;;;26.09;49.57;101708.13;5070179;28;20024;-47
2022/08/25 02:46:36;;;;;;;0.85;0.70;;;;;;;26.08;49.51;101701.00;5068790;28;20021;-46
2022/08/25 02:49:02;;;;;;;2.00;0.90;;;;;;;26.08;49.51;101703.72;5075927;28;20020;-48
2022/08/25 02:51:28;;;;;;;0.93;0.80;;;;;;;26.08;49.55;101695.53;5082892;28;20035;-52
2022/08/25 02:53:55;;;;;;;0.70;0.70;;;;;;;26.09;49.65;101699.94;5082012;28;20054;-48
2022/08/25 02:56:20;;;;;;;0.98;0.88;;;;;;;26.09;49.38;101696.38;5073364;28;20107;-48
2022/08/25 02:58:46;;;;;;;0.85;0.70;;;;;;;26.08;49.69;101689.22;5076879;28;20029;-50
2022/08/25 03:01:12;;;;;;;0.73;0.70;;;;;;;26.09;49.24;101696.38;5069374;28;20831;-47
2022/08/25 03:03:39;;;;;;;0.88;0.70;;;;;;;26.07;49.56;101688.38;5069765;28;20025;-47
2022/08/25 03:06:06;;;;;;;0.70;0.70;;;;;;;26.07;49.50;101680.19;5068015;28;20028;-45
2022/08/25 03:08:32;;;;;;;0.80;0.77;;;;;;;26.07;49.38;101687.53;5082371;28;20048;-46
2022/08/25 03:10:57;;;;;;;0.65;0.65;;;;;;;26.06;49.37;101681.25;5082429;28;20020;-49
2022/08/25 03:13:22;;;;;;;1.20;1.10;;;;;;;26.05;49.22;101685.03;5073188;28;20080;-47
2022/08/25 03:15:48;;;;;;;1.08;0.73;;;;;;;26.05;49.37;101678.72;5077282;28;20024;-51
2022/08/25 03:18:14;;;;;;;1.23;0.80;;;;;;;26.04;49.26;101677.03;5075544;28;20044;-53
2022/08/25 03:20:39;;;;;;;1.00;0.85;;;;;;;26.04;49.43;101675.16;5079235;28;20096;-49
2022/08/25 03:23:05;;;;;;;0.60;0.60;;;;;;;26.04;49.33;101675.16;5085385;28;20070;-48
2022/08/25 03:28:15;;;;;;;1.50;1.00;;;;;;;26.03;49.17;101664.44;5085885;28;20401;-49
2022/08/25 03:30:41;;;;;;;0.75;0.73;;;;;;;26.02;49.09;101665.50;5086274;28;20024;-48
2022/08/25 03:33:07;;;;;;;0.98;0.88;;;;;;;26.01;49.35;101659.22;5085108;28;20012;-48
2022/08/25 03:35:32;;;;;;;0.93;0.82;;;;;;;26.01;49.18;101664.66;5086052;28;20043;-46
2022/08/25 03:37:58;;;;;;;0.90;0.75;;;;;;;26.01;49.23;101655.66;5085108;28;20031;-51
2022/08/25 03:40:24;;;;;;;0.80;0.50;;;;;;;25.98;49.09;101651.41;5085800;28;20051;-48
2022/08/25 03:42:49;;;;;;;1.38;0.75;;;;;;;26.00;49.45;101657.53;5085082;28;20025;-49
2022/08/25 03:45:16;;;;;;;0.77;0.70;;;;;;;25.99;49.26;101655.81;5085815;28;20064;-48
2022/08/25 03:47:45;;;;;;;0.57;0.57;;;;;;;26.00;48.99;101662.09;5084697;28;20059;-48
2022/08/25 03:50:11;;;;;;;1.33;0.93;;;;;;;25.98;49.46;101654.16;5085871;28;20030;-47
2022/08/25 03:52:37;;;;;;;0.77;0.70;;;;;;;25.99;49.25;101660.44;5084960;28;20118;-49
2022/08/25 03:55:07;;;;;;;1.38;0.70;;;;;;;25.99;49.30;101664.00;5085425;28;20501;-49
2022/08/25 03:57:33;;;;;;;0.75;0.70;;;;;;;25.93;49.26;101648.44;5077179;28;20100;-52
2022/08/25 03:59:58;;;;;;;0.88;0.73;;;;;;;25.98;49.09;101653.31;5079136;28;20028;-53
2022/08/25 04:02:23;;;;;;;1.05;0.85;;;;;;;25.97;49.33;101655.19;5080924;28;20119;-50
2022/08/25 04:04:49;;;;;;;0.80;0.80;;;;;;;25.98;48.93;101650.59;5082162;28;20027;-53
2022/08/25 04:07:14;;;;;;;0.82;0.80;;;;;;;25.97;49.23;101649.75;5080181;28;20017;-52
2022/08/25 04:09:40;;;;;;;0.85;0.68;;;;;;;25.99;49.20;101644.09;5066184;28;20071;-53
2022/08/25 04:12:05;;;;;;;0.60;0.60;;;;;;;25.97;49.13;101644.28;5083751;28;20029;-53
2022/08/25 04:14:31;;;;;;;0.93;0.85;;;;;;;25.98;49.09;101637.78;5084734;28;20047;-51
2022/08/25 04:16:56;;;;;;;1.27;0.77;;;;;;;25.99;49.23;101630.47;5083537;28;20027;-47
2022/08/25 04:19:21;;;;;;;0.70;0.70;;;;;;;25.99;49.30;101627.72;5084568;28;20056;-51
2022/08/25 04:21:47;;;;;;;0.80;0.65;;;;;;;25.98;49.18;101628.78;5084477;28;20028;-45
2022/08/25 04:24:13;;;;;;;0.70;0.65;;;;;;;25.98;49.17;101626.06;5079701;28;20048;-52
2022/08/25 04:26:42;;;;;;;0.80;0.70;;;;;;;25.99;49.17;101635.91;5084120;28;20032;-53
2022/08/25 04:29:09;;;;;;;0.85;0.70;;;;;;;26.00;49.25;101632.13;5084399;28;20092;-50
2022/08/25 04:31:35;;;;;;;0.90;0.80;;;;;;;25.99;49.28;101634.03;5083426;28;20021;-52
2022/08/25 04:34:01;;;;;;;0.70;0.70;;;;;;;25.99;49.14;101628.56;5084346;28;20025;-51
2022/08/25 04:36:27;;;;;;;1.00;0.75;;;;;;;25.93;49.35;101624.78;5078358;28;20025;-51
2022/08/25 04:38:52;;;;;;;0.80;0.60;;;;;;;26.00;49.21;101629.41;5080919;28;20023;-54
2022/08/25 04:41:19;;;;;;;0.73;0.63;;;;;;;26.00;49.26;101623.97;5084392;28;20033;-53
2022/08/25 04:43:45;;;;;;;0.63;0.55;;;;;;;25.96;49.20;101620.81;5077097;28;20020;-50
2022/08/25 04:46:13;;;;;;;0.93;0.70;;;;;;;26.00;49.33;101629.41;5082986;28;20028;-53
2022/08/25 04:48:39;;;;;;;0.98;0.88;;;;;;;25.97;49.09;101630.66;5087279;28;20031;-51
2022/08/25 04:51:06;;;;;;;0.77;0.70;;;;;;;25.95;48.60;101627.28;5082683;28;20500;-53
2022/08/25 04:53:32;;;;;;;1.08;0.80;;;;;;;25.88;48.29;101621.81;5081462;28;20161;-53
2022/08/25 04:55:58;;;;;;;1.10;0.90;;;;;;;25.89;47.72;101625.38;5083254;28;20068;-50
2022/08/25 04:58:23;;;;;;;1.75;1.33;;;;;;;25.86;47.42;101629.31;5083575;28;20023;-53
2022/08/25 05:00:48;;;;;;;2.17;0.93;;;;;;;25.83;47.28;101632.47;5082483;28;20173;-50
2022/08/25 05:03:14;;;;;;;1.45;1.23;;;;;;;25.81;46.85;101622.78;5081464;28;20024;-52
2022/08/25 05:05:39;;;;;;;1.15;1.02;;;;;;;25.79;46.70;101622.16;5082952;28;20274;-54
2022/08/25 05:08:05;;;;;;;1.50;1.23;;;;;;;25.76;46.53;101623.34;5078506;28;20651;-51
2022/08/25 05:10:31;;;;;;;2.08;1.45;;;;;;;25.74;46.29;101622.69;5083629;28;20024;-53
2022/08/25 05:12:56;;;;;;;1.90;1.20;;;;;;;25.72;45.98;101618.50;5082848;28;21015;-51
2022/08/25 05:18:05;;;;;;;2.38;1.40;;;;;;;25.67;45.56;101619.91;5071555;28;20051;-51
2022/08/25 05:20:31;;;;;;;1.63;1.30;;;;;;;25.66;45.53;101628.31;5083628;28;20533;-50
2022/08/25 05:22:57;;;;;;;2.00;1.55;;;;;;;25.64;45.50;101628.47;5082699;28;20081;-51
2022/08/25 05:25:22;;;;;;;1.85;1.38;;;;;;;25.63;45.20;101634.97;5083891;28;20043;-53
2022/08/25 05:27:48;;;;;;;1.45;1.05;;;;;;;25.61;45.12;101631.59;5083002;28;20017;-54
2022/08/25 05:30:13;;;;;;;2.72;1.40;;;;;;;25.60;44.83;101634.50;5083649;28;20028;-53
2022/08/25 05:32:38;;;;;;;2.10;1.38;;;;;;;25.59;44.76;101628.22;5082775;28;20031;-53
2022/08/25 05:35:05;;;;;;;1.65;1.30;;;;;;;25.58;44.66;101634.72;5069409;28;20021;-53
2022/08/25 05:37:31;;;;;;;1.55;1.20;;;;;;;25.56;44.74;101630.50;5082254;28;20079;-51
2022/08/25 05:39:57;;;;;;;1.30;1.10;;;;;;;25.55;44.57;101629.66;5082824;28;20028;-49
2022/08/25 05:42:23;;;;;;;2.28;1.75;;;;;;;25.54;44.69;101636.16;5081913;28;20024;-52
2022/08/25 05:44:48;;;;;;;1.33;0.90;;;;;;;25.50;44.52;101621.25;5081621;28;20049;-53
2022/08/25 05:47:13;;;;;;;1.63;1.35;;;;;;;25.53;44.42;101628.16;5081672;28;20020;-54
2022/08/25 05:49:38;;;;;;;1.92;1.40;;;;;;;25.50;44.45;101632.13;5080933;28;20021;-52
2022/08/25 05:52:04;;;;;;;2.08;1.10;;;;;;;25.51;44.47;101627.53;5082078;28;20024;-51
2022/08/25 05:54:30;;;;;;;1.80;1.33;;;;;;;25.51;44.52;101632.97;5082182;28;20231;-53
2022/08/25 05:56:56;;;;;;;1.42;1.17;;;;;;;25.50;44.33;101636.75;5080337;28;20084;-52
2022/08/25 05:59:21;;;;;;;1.40;1.02;;;;;;;25.50;44.39;101634.00;5063701;28;20013;-54
2022/08/25 06:04:31;;;;;;;1.27;1.10;;;;;;;25.50;44.46;101637.56;5063167;28;20040;-53
2022/08/25 06:06:56;;;;;;;2.28;1.30;;;;;;;25.51;44.39;101641.97;5063403;28;20104;-54
2022/08/25 06:09:22;;;;;;;1.55;1.20;;;;;;;25.53;44.50;101637.19;5063289;28;20025;-52
2022/08/25 06:11:47;;;;;;;1.52;1.23;;;;;;;25.54;44.77;101633.44;5067210;28;20028;-53
2022/08/25 06:14:13;;;;;;;2.08;1.38;;;;;;;25.56;44.54;101633.22;5063235;28;20466;-53
2022/08/25 06:16:39;;;;;;;2.20;1.30;;;;;;;25.58;44.52;101634.72;5062370;28;20059;-54
2022/08/25 06:19:04;;;;;;;2.15;1.25;;;;;;;25.58;44.90;101626.56;5063313;28;20027;-52
2022/08/25 06:21:30;;;;;;;3.30;1.95;;;;;;;25.61;44.77;101630.75;5065853;28;20132;-53
2022/08/25 06:23:55;;;;;;;1.20;1.10;;;;;;;25.61;44.76;101637.03;5062773;28;20537;-50
2022/08/25 06:26:21;;;;;;;1.33;1.13;;;;;;;25.63;44.73;101636.84;5063251;28;20029;-50
2022/08/25 06:28:46;;;;;;;1.45;1.27;;;;;;;25.63;44.85;101640.41;5062839;28;20118;-53
2022/08/25 06:31:12;;;;;;;1.50;1.30;;;;;;;25.63;44.70;101634.97;5066852;28;20680;-51
2022/08/25 06:33:37;;;;;;;1.40;1.17;;;;;;;25.63;45.06;101640.41;5083147;28;20116;-50
2022/08/25 06:36:03;;;;;;;1.05;0.95;;;;;;;25.64;44.86;101642.09;5082728;28;20020;-52
2022/08/25 06:38:28;;;;;;;1.30;1.10;;;;;;;25.65;44.92;101638.31;5076177;28;20128;-52
2022/08/25 06:40:55;;;;;;;1.88;1.17;;;;;;;25.66;44.87;101631.03;5073651;28;20035;-54
2022/08/25 06:43:21;;;;;;;1.38;1.08;;;;;;;25.67;44.97;101636.25;5067240;28;20682;-52
2022/08/25 06:45:47;;;;;;;1.20;1.10;;;;;;;25.68;45.00;101639.81;5083009;28;20100;-52
2022/08/25 06:48:12;;;;;;;1.35;1.02;;;;;;;25.69;44.92;101638.78;5076382;28;20025;-52
2022/08/25 06:50:38;;;;;;;1.20;1.05;;;;;;;25.69;45.02;101631.44;5082709;28;20179;-53
2022/08/25 06:53:04;;;;;;;1.17;1.05;;;;;;;25.69;44.97;101638.78;5069616;28;20112;-53
2022/08/25 06:55:29;;;;;;;2.00;1.23;;;;;;;25.69;44.99;101634.16;5085206;28;20045;-52
2022/08/25 06:57:54;;;;;;;1.08;0.98;;;;;;;25.69;45.06;101631.44;5086051;28;20389;-53
2022/08/25 07:00:20;;;;;;;2.13;1.20;;;;;;;25.71;45.18;101635.88;5086298;28;20024;-54
2022/08/25 07:02:46;;;;;;;1.15;1.00;;;;;;;25.69;45.07;101636.06;5085759;28;20044;-50
2022/08/25 07:05:11;;;;;;;1.10;1.00;;;;;;;25.70;45.30;101640.50;5086268;28;20835;-51
2022/08/25 07:07:37;;;;;;;1.30;1.00;;;;;;;25.69;45.14;101639.63;5086179;28;20036;-53
2022/08/25 07:10:03;;;;;;;1.20;1.02;;;;;;;25.72;45.32;101643.00;5085714;28;20048;-54
2022/08/25 07:12:28;;;;;;;1.20;1.10;;;;;;;25.71;45.33;101642.16;5085532;28;20024;-49
2022/08/25 07:14:54;;;;;;;1.25;0.90;;;;;;;25.72;45.30;101643.00;5086117;28;20036;-55
2022/08/25 07:17:22;;;;;;;1.50;0.80;;;;;;;25.73;45.48;101641.97;5073263;28;20024;-51
2022/08/25 07:19:48;;;;;;;1.70;1.20;;;;;;;25.72;45.22;101643.84;5076819;28;20043;-47
2022/08/25 07:22:13;;;;;;;1.52;1.17;;;;;;;25.74;45.41;101657.25;5078468;28;20024;-48
2022/08/25 07:24:38;;;;;;;1.27;1.02;;;;;;;25.74;45.42;101657.25;5073460;28;20076;-47
2022/08/25 07:27:04;;;;;;;1.45;1.10;;;;;;;25.76;45.26;101641.56;5076284;28;20012;-47
2022/08/25 07:29:31;;;;;;;1.45;1.08;;;;;;;25.76;45.44;101644.28;5080502;28;20478;-49
2022/08/25 07:31:57;;;;;;;1.27;1.00;;;;;;;25.77;45.59;101644.13;5078943;28;20375;-48
2022/08/25 07:37:06;;;;;;;1.38;0.95;;;;;;;25.78;45.51;101639.50;5079802;28;20031;-46
2022/08/25 07:39:33;;;;;;;1.42;0.98;;;;;;;25.79;45.35;101644.78;5080241;28;20052;-49
2022/08/25 07:41:58;;;;;;;2.20;1.10;;;;;;;25.81;45.54;101645.41;5080709;28;20034;-48
2022/08/25 07:44:24;;;;;;;1.38;1.10;;;;;;;25.79;45.73;101636.63;5081044;28;20095;-46
2022/08/25 07:46:51;;;;;;;1.60;0.98;;;;;;;25.83;45.71;101640.63;5075094;28;20035;-47
2022/08/25 07:49:17;;;;;;;1.10;1.00;;;;;;;25.84;45.67;101633.28;5078502;28;20040;-51
2022/08/25 07:51:44;;;;;;;1.30;0.93;;;;;;;25.84;45.48;101633.28;5073872;28;20036;-44
2022/08/25 07:54:09;;;;;;;1.23;1.10;;;;;;;25.85;45.67;101634.97;5075877;28;20040;-45
2022/08/25 07:56:34;;;;;;;1.30;1.00;;;;;;;25.86;45.77;101634.75;5079777;28;20023;-44
2022/08/25 07:58:59;;;;;;;2.08;1.25;;;;;;;25.86;45.84;101642.09;5077844;28;20036;-42
2022/08/25 08:01:25;;;;;;;1.42;1.33;;;;;;;25.85;45.79;101638.53;5070129;28;20468;-46
2022/08/25 08:03:51;;;;;;;2.22;1.00;;;;;;;25.88;45.87;101643.59;5080489;28;20028;-43
2022/08/25 08:06:18;;;;;;;1.63;1.00;;;;;;;25.90;45.74;101640.66;5076049;28;20135;-44
2022/08/25 08:08:44;;;;;;;1.55;1.15;;;;;;;25.90;45.70;101640.66;5072776;28;20055;-45
2022/08/25 08:11:31;;;;;;;1.45;0.90;;;;;;;25.92;45.98;101646.78;5078389;28;20024;-45
2022/08/25 08:13:57;;;;;;;1.23;1.00;;;;;;;25.93;46.02;101652.00;5069057;28;20013;-46
2022/08/25 08:16:25;;;;;;;1.38;1.02;;;;;;;25.94;46.04;101652.84;5081202;28;20116;-43
2022/08/25 08:18:51;;;;;;;0.82;0.65;;;;;;;25.96;45.97;101637.16;5072875;28;20037;-45
2022/08/25 08:21:25;;;;;;;1.08;0.93;;;;;;;25.97;45.95;101633.41;5078408;28;20044;-49
2022/08/25 08:23:51;;;;;;;1.85;1.25;;;;;;;25.99;45.94;101622.28;5075641;28;20048;-53
2022/08/25 08:26:17;;;;;;;1.48;1.00;;;;;;;26.01;46.05;101625.66;5081620;28;20020;-50
2022/08/25 08:28:43;;;;;;;1.10;1.00;;;;;;;26.04;45.96;101625.25;5074504;28;20091;-52
2022/08/25 08:31:08;;;;;;;1.67;0.98;;;;;;;26.04;46.21;101620.66;5081671;28;20040;-48
2022/08/25 08:33:33;;;;;;;1.02;0.90;;;;;;;26.01;46.11;101614.78;5080663;28;20052;-48
2022/08/25 08:36:02;;;;;;;1.33;1.02;;;;;;;26.06;45.98;101617.72;5078150;28;20032;-51
2022/08/25 08:38:27;;;;;;;;;;;;;;;26.02;46.10;101614.56;5078614;28;20083;-50
2022/08/25 08:44:32;;;;;;;1.35;1.02;;;;;;;26.02;46.10;101609.09;5072862;28;20039;-53
2022/08/25 08:47:29;;;;;;;1.20;0.93;;;;;;;26.03;46.08;101608.06;5075537;28;20055;-55
2022/08/25 08:49:58;;;;;;;1.25;1.10;;;;;;;26.04;46.04;101603.44;5076446;28;20036;-55
2022/08/25 08:52:51;;;;;;;1.23;0.90;;;;;;;26.07;46.04;101605.78;5070530;28;20035;-56
2022/08/25 08:55:32;;;;;;;1.30;1.02;;;;;;;26.09;46.06;101596.38;5078840;28;20056;-48
2022/08/25 08:58:00;;;;;;;1.55;1.10;;;;;;;26.09;46.21;101599.09;5071744;28;20044;-46
2022/08/25 09:00:27;;;;;;;0.90;0.77;;;;;;;26.11;46.16;101588.81;5076651;28;20020;-50
2022/08/25 09:03:04;;;;;;;1.00;0.80;;;;;;;26.14;46.04;101591.16;5069415;28;20017;-51
2022/08/25 09:05:32;;;;;;;1.10;1.00;;;;;;;26.16;46.19;101580.88;5076420;28;20028;-54
2022/08/25 09:08:08;;;;;;;;;;;;;;;26.16;46.14;101585.50;5079148;28;20055;-49
2022/08/25 09:11:17;;;;;;;1.55;1.00;;;;;;;26.20;45.91;101575.03;5076741;28;19978;-53
2022/08/25 09:14:12;;;;;;;1.13;0.85;;;;;;;26.22;46.11;101572.97;5063033;28;20100;-56
2022/08/25 09:16:54;;;;;;;0.90;0.73;;;;;;;26.25;46.23;101567.97;5073809;28;20043;-53
2022/08/25 09:19:41;;;;;;;1.35;1.25;;;;;;;26.27;46.16;101573.19;5078980;28;20034;-53
2022/08/25 09:22:31;;;;;;;0.98;0.88;;;;;;;26.30;46.07;101570.09;5081458;28;20072;-50
2022/08/25 09:25:12;;;;;;;0.95;0.77;;;;;;;26.32;46.19;101571.53;5076795;28;20027;-52
2022/08/25 09:27:58;;;;;;;1.25;0.90;;;;;;;26.34;46.21;101564.03;5075828;28;20024;-51
2022/08/25 09:30:23;;;;;;;1.35;1.13;;;;;;;26.36;46.33;101567.38;5074065;28;20028;-52
2022/08/25 09:33:00;;;;;;;1.20;1.00;;;;;;;26.39;45.76;101561.53;5072262;28;20031;-54
2022/08/25 09:35:28;;;;;;;0.98;0.70;;;;;;;26.41;46.04;101558.59;5071043;28;20031;-50
2022/08/25 09:38:12;;;;;;;1.40;0.80;;;;;;;26.46;45.88;101563.44;5075711;28;20462;-46
2022/08/25 09:40:40;;;;;;;1.50;0.90;;;;;;;26.45;46.21;101557.16;5071505;28;20043;-50
2022/08/25 09:43:29;;;;;;;0.98;0.88;;;;;;;26.50;45.91;101553.81;5078645;28;20031;-46
2022/08/25 09:45:58;;;;;;;1.67;1.17;;;;;;;26.50;45.99;101551.94;5069064;28;20024;-49
2022/08/25 09:48:37;;;;;;;1.98;1.05;;;;;;;26.51;46.06;101553.63;5074863;28;20025;-54
2022/08/25 09:51:15;;;;;;;1.40;0.95;;;;;;;26.50;46.20;101541.03;5076368;28;20373;-57
2022/08/25 09:53:49;;;;;;;1.15;0.98;;;;;;;26.55;46.29;101537.69;5071982;28;20021;-54
2022/08/25 09:56:19;;;;;;;1.42;0.85;;;;;;;26.57;46.09;101535.59;5075487;28;20039;-56
2022/08/25 09:58:44;;;;;;;1.52;0.90;;;;;;;26.57;46.02;101532.88;5073107;28;20487;-54
2022/08/25 10:01:20;;;;;;;1.20;1.10;;;;;;;26.60;46.18;101538.78;5074122;28;20052;-53
2022/08/25 10:04:00;;;;;;;1.48;1.05;;;;;;;26.63;46.00;101545.69;5072885;28;20090;-50
2022/08/25 10:06:41;;;;;;;1.13;0.90;;;;;;;26.64;45.93;101533.75;5080998;28;20016;-54
2022/08/25 10:09:07;;;;;;;2.25;1.10;;;;;;;26.65;45.97;101528.09;5071841;28;20013;-51
2022/08/25 10:11:42;;;;;;;1.38;1.25;;;;;;;26.66;46.04;101535.22;5080365;28;20035;-57
2022/08/25 10:14:35;;;;;;;0.85;0.82;;;;;;;26.70;46.19;101523.91;5093663;28;20021;-56
2022/08/25 10:17:23;;;;;;;1.27;0.88;;;;;;;26.71;45.98;101533.75;5075538;28;20032;-55
2022/08/25 10:19:54;;;;;;;1.63;0.80;;;;;;;26.72;46.08;101521.78;5077004;28;20028;-53
2022/08/25 10:22:31;;;;;;;1.35;0.93;;;;;;;26.73;45.70;101521.59;5074155;28;20025;-57
2022/08/25 10:24:57;;;;;;;1.20;0.90;;;;;;;26.74;46.21;101525.16;5079775;28;20017;-57
2022/08/25 10:27:58;;;;;;;0.90;0.80;;;;;;;26.77;46.01;101522.03;5078827;28;20025;-55
2022/08/25 10:30:54;;;;;;;1.00;0.85;;;;;;;26.77;45.74;101511.97;5081140;28;20040;-57
2022/08/25 10:33:40;;;;;;;1.20;0.80;;;;;;;26.79;45.76;101515.31;5061175;28;20028;-55
2022/08/25 10:36:41;;;;;;;1.48;0.90;;;;;;;26.80;45.93;101506.06;5083410;28;20035;-57
2022/08/25 10:39:38;;;;;;;0.98;0.77;;;;;;;26.81;45.66;101505.03;5076909;28;20036;-57
2022/08/25 10:42:20;;;;;;;2.78;1.00;;;;;;;26.79;45.56;101487.19;5080137;28;20059;-56
2022/08/25 10:48:05;;;;;;;1.08;0.98;;;;;;;26.88;45.68;101484.03;5066023;28;20028;-56
2022/08/25 10:50:45;;;;;;;1.50;1.10;;;;;;;26.85;45.75;101476.31;5080129;28;20120;-54
2022/08/25 10:53:28;;;;;;;1.38;1.10;;;;;;;26.91;45.66;101469.16;5076850;28;20035;-45
2022/08/25 10:56:04;;;;;;;1.38;1.05;;;;;;;26.92;45.59;101470.84;5080351;28;20037;-49
2022/08/25 10:58:33;;;;;;;1.23;1.10;;;;;;;26.93;45.59;101469.78;5076420;28;20051;-51
2022/08/25 11:01:08;;;;;;;1.38;1.27;;;;;;;26.95;45.57;101473.16;5074580;28;20025;-48
2022/08/25 11:03:43;;;;;;;1.65;1.35;;;;;;;26.95;45.47;101470.41;5069338;28;20096;-52
2022/08/25 11:06:17;;;;;;;1.23;1.02;;;;;;;26.97;45.46;101468.31;5082653;28;20032;-51
2022/08/25 11:08:49;;;;;;;1.60;1.20;;;;;;;26.98;45.33;101463.72;5077366;28;20028;-56
2022/08/25 11:11:28;;;;;;;2.08;1.65;;;;;;;26.99;45.44;101462.66;5074634;28;20020;-52
2022/08/25 11:13:57;;;;;;;2.38;1.27;;;;;;;26.99;45.11;101463.50;5077449;28;20035;-52
2022/08/25 11:17:10;;;;;;;1.45;1.10;;;;;;;26.99;45.67;101468.13;5073277;28;20048;-46
2022/08/25 11:19:44;;;;;;;3.45;1.27;;;;;;;26.97;45.77;101453.81;5039034;28;20092;-45
2022/08/25 11:22:18;;;;;;;2.15;1.77;;;;;;;26.98;45.56;101456.38;5041055;28;20037;-52
2022/08/25 11:25:17;;;;;;;1.90;1.40;;;;;;;26.98;45.58;101450.91;5040203;28;20031;-56
2022/08/25 11:27:49;;;;;;;1.80;1.50;;;;;;;26.98;45.41;101450.06;5023914;28;20048;-56
2022/08/25 11:30:16;;;;;;;1.52;1.40;;;;;;;26.99;45.76;101451.75;5041132;28;20036;-53
2022/08/25 11:32:45;;;;;;;2.20;1.52;;;;;;;27.00;45.49;101445.22;5022793;28;20021;-45
2022/08/25 11:35:12;;;;;;;1.50;1.23;;;;;;;27.01;45.36;101433.25;5040947;28;20061;-49
2022/08/25 11:38:04;;;;;;;1.85;1.60;;;;;;;27.04;45.61;101435.56;5040909;28;20176;-49
2022/08/25 11:40:59;;;;;;;1.90;1.40;;;;;;;27.05;45.43;101431.78;5020131;28;20029;-54
2022/08/25 11:43:49;;;;;;;1.90;1.38;;;;;;;27.07;45.68;101436.00;5028745;28;20099;-52
2022/08/25 11:46:29;;;;;;;1.48;1.25;;;;;;;27.10;45.33;101432.03;5039883;28;20036;-60
2022/08/25 11:49:20;;;;;;;1.75;1.42;;;;;;;27.12;45.64;101432.66;5033228;28;20029;-49
2022/08/25 11:51:47;;;;;;;2.42;1.58;;;;;;;27.14;45.70;101433.28;5077602;28;20031;-53
2022/08/25 11:54:23;;;;;;;2.88;1.80;;;;;;;27.15;45.47;101433.09;5073899;28;20048;-58
2022/08/25 11:56:55;;;;;;;2.20;1.55;;;;;;;27.16;45.54;101426.56;5081686;28;20089;-53